Time;durP1;ratioP1;P1;durP2;ratioP2;P2;SDS_P1;SDS_P2;PMS_P1;PMS_P2;Temp;Humidity;BMP_temperature;BMP_pressure;BME280_temperature;BME280_humidity;BME280_pressure;Samples;Min_cycle;Max_cycle;Signal;HPM_P1;HPM_P2
2022/12/05 00:01:27;;;;;;;25.85;14.23;;;;;;;;;;5015743;28;20060;-63
2022/12/05 00:03:59;;;;;;;22.85;12.95;;;4.60;99.90;;;;;;5015441;28;20034;-63
2022/12/05 00:06:26;;;;;;;30.92;15.07;;;4.70;99.90;;;;;;5028964;28;20033;-63
2022/12/05 00:08:52;;;;;;;27.55;14.98;;;4.70;99.90;;;;;;5017793;28;20121;-63
2022/12/05 00:11:30;;;;;;;31.73;15.55;;;4.70;99.90;;;;;;5009161;28;20038;-63
2022/12/05 00:13:58;;;;;;;28.30;15.45;;;4.60;99.90;;;;;;5016868;28;20082;-63
2022/12/05 00:16:25;;;;;;;27.70;14.43;;;4.60;99.90;;;;;;5017397;28;20057;-63
2022/12/05 00:18:51;;;;;;;30.20;15.50;;;4.70;99.90;;;;;;5017353;28;20052;-63
2022/12/05 00:21:22;;;;;;;27.58;15.07;;;4.70;99.90;;;;;;5014978;28;20034;-63
2022/12/05 00:23:49;;;;;;;32.78;15.85;;;4.70;99.90;;;;;;5017354;28;20046;-63
2022/12/05 00:26:15;;;;;;;28.92;15.05;;;4.60;99.90;;;;;;5016891;28;20045;-63
2022/12/05 00:28:41;;;;;;;27.20;15.23;;;4.70;99.90;;;;;;5019815;28;20056;-63
2022/12/05 00:31:13;;;;;;;34.28;17.00;;;4.50;99.90;;;;;;5021552;28;20123;-63
2022/12/05 00:33:39;;;;;;;30.48;16.25;;;4.70;99.90;;;;;;5020929;28;20046;-64
2022/12/05 00:36:07;;;;;;;33.33;16.17;;;;;;;;;;5014459;28;20558;-63
2022/12/05 00:38:32;;;;;;;34.75;18.55;;;4.80;99.90;;;;;;5014613;28;20499;-63
2022/12/05 00:41:07;;;;;;;30.70;14.70;;;4.70;99.90;;;;;;5014823;28;20120;-63
2022/12/05 00:43:33;;;;;;;28.70;15.38;;;;;;;;;;5033416;28;20037;-63
2022/12/05 00:46:06;;;;;;;29.25;15.57;;;4.90;99.90;;;;;;5021169;28;20395;-62
2022/12/05 00:48:32;;;;;;;32.80;15.98;;;4.70;99.90;;;;;;4996545;28;20072;-63
2022/12/05 00:51:08;;;;;;;29.25;15.70;;;4.80;99.90;;;;;;5026528;28;20075;-63
2022/12/05 00:53:34;;;;;;;30.50;15.02;;;4.80;99.90;;;;;;5014473;28;20052;-63
2022/12/05 00:56:08;;;;;;;27.38;15.13;;;4.70;99.90;;;;;;5026034;28;20522;-63
2022/12/05 00:58:34;;;;;;;24.85;13.77;;;4.70;99.90;;;;;;5011476;28;20092;-63
2022/12/05 01:01:13;;;;;;;32.08;14.98;;;4.90;99.90;;;;;;5025054;28;20048;-63
2022/12/05 01:03:40;;;;;;;30.75;14.90;;;4.90;99.90;;;;;;5019892;28;20553;-63
2022/12/05 01:06:06;;;;;;;28.73;14.68;;;;;;;;;;5016138;28;20047;-63
2022/12/05 01:08:33;;;;;;;28.92;14.60;;;4.70;99.90;;;;;;5002233;28;20049;-63
2022/12/05 01:11:00;;;;;;;26.65;14.07;;;4.80;99.90;;;;;;4996966;28;20084;-63
2022/12/05 01:13:26;;;;;;;26.90;14.50;;;4.70;99.90;;;;;;5010181;28;20045;-63
2022/12/05 01:15:52;;;;;;;29.38;15.15;;;4.70;99.90;;;;;;5013944;28;20385;-63
2022/12/05 01:18:19;;;;;;;31.65;15.95;;;4.70;99.90;;;;;;5013983;28;20045;-63
2022/12/05 01:20:45;;;;;;;30.30;15.40;;;4.80;99.90;;;;;;5013787;28;20396;-63
2022/12/05 01:23:11;;;;;;;29.23;15.45;;;4.80;99.90;;;;;;4996451;28;20038;-63
2022/12/05 01:25:41;;;;;;;27.25;14.80;;;;;;;;;;5013815;28;20562;-63
2022/12/05 01:28:07;;;;;;;32.35;16.65;;;4.80;99.90;;;;;;5013728;28;20586;-63
2022/12/05 01:30:37;;;;;;;28.02;15.13;;;4.60;99.90;;;;;;4998885;28;20095;-63
2022/12/05 01:33:03;;;;;;;31.70;15.88;;;4.60;99.90;;;;;;5014997;28;20038;-64
2022/12/05 01:35:34;;;;;;;29.02;16.67;;;4.70;99.90;;;;;;5029360;28;20052;-63
2022/12/05 01:38:00;;;;;;;35.05;18.42;;;4.90;99.90;;;;;;5024121;28;20044;-63
2022/12/05 01:40:25;;;;;;;38.28;18.42;;;4.70;99.90;;;;;;5021699;28;20559;-63
2022/12/05 01:42:51;;;;;;;34.25;18.20;;;4.90;99.90;;;;;;5032682;28;20077;-63
2022/12/05 01:45:36;;;;;;;35.65;19.17;;;4.90;99.90;;;;;;5019676;28;20128;-63
2022/12/05 01:48:07;;;;;;;38.90;19.30;;;5.00;99.90;;;;;;5032866;28;20033;-63
2022/12/05 01:50:34;;;;;;;37.83;19.50;;;5.00;99.90;;;;;;5025960;28;20048;-63
2022/12/05 01:53:00;;;;;;;34.40;17.95;;;5.20;99.90;;;;;;4995855;28;20050;-63
2022/12/05 01:55:26;;;;;;;37.42;19.95;;;5.10;99.90;;;;;;5013250;28;20511;-63
2022/12/05 01:57:53;;;;;;;42.95;19.67;;;;;;;;;;5013414;28;20046;-63
2022/12/05 02:00:19;;;;;;;37.40;19.42;;;5.00;99.90;;;;;;5019640;28;20045;-63
2022/12/05 02:03:06;;;;;;;40.40;19.58;;;;;;;;;;5013134;28;20033;-63
2022/12/05 02:05:34;;;;;;;42.92;20.13;;;5.20;99.90;;;;;;5013741;28;20502;-64
2022/12/05 02:08:03;;;;;;;36.50;19.33;;;5.00;99.90;;;;;;5023786;28;20447;-63
2022/12/05 02:10:33;;;;;;;41.65;21.02;;;5.10;99.90;;;;;;5001315;28;20037;-63
2022/12/05 02:13:12;;;;;;;44.65;20.35;;;5.10;99.90;;;;;;5023359;28;20049;-63
2022/12/05 02:15:56;;;;;;;39.65;20.20;;;5.20;99.90;;;;;;5013113;28;20038;-64
2022/12/05 02:18:40;;;;;;;45.78;19.80;;;5.10;99.90;;;;;;4995464;28;20038;-63
2022/12/05 02:21:24;;;;;;;43.58;21.13;;;5.00;99.90;;;;;;4995429;28;20041;-63
2022/12/05 02:24:18;;;;;;;42.17;20.85;;;5.20;99.90;;;;;;5026989;28;20167;-63
2022/12/05 02:27:09;;;;;;;38.70;20.73;;;5.10;99.90;;;;;;4995336;28;20052;-63
2022/12/05 02:29:40;;;;;;;44.35;20.42;;;;;;;;;;5013216;28;20129;-63
2022/12/05 02:32:30;;;;;;;39.78;20.80;;;5.10;99.90;;;;;;4995438;28;20049;-62
2022/12/05 02:35:20;;;;;;;37.00;20.17;;;5.30;99.90;;;;;;5021079;28;20046;-63
2022/12/05 02:38:07;;;;;;;41.40;20.67;;;5.10;99.90;;;;;;5029081;28;20033;-63
2022/12/05 02:40:45;;;;;;;41.35;20.20;;;5.00;99.90;;;;;;5025626;28;20040;-63
2022/12/05 02:43:18;;;;;;;42.08;20.67;;;5.20;99.90;;;;;;5013639;28;20050;-63
2022/12/05 02:45:46;;;;;;;44.47;19.65;;;5.00;99.90;;;;;;4995242;28;20052;-63
2022/12/05 02:48:15;;;;;;;41.13;19.98;;;5.10;99.90;;;;;;5026551;28;20038;-63
2022/12/05 02:50:41;;;;;;;42.13;20.83;;;5.10;99.90;;;;;;5012880;28;20068;-62
2022/12/05 02:53:10;;;;;;;39.95;20.50;;;5.20;99.90;;;;;;4995318;28;20041;-63
2022/12/05 02:55:38;;;;;;;36.13;19.33;;;5.10;99.90;;;;;;5022273;28;20124;-63
2022/12/05 02:58:13;;;;;;;40.75;20.35;;;5.10;99.90;;;;;;5016728;28;20038;-63
2022/12/05 03:00:43;;;;;;;48.83;20.47;;;5.20;99.90;;;;;;4994951;28;20492;-63
2022/12/05 03:03:15;;;;;;;39.33;20.20;;;5.20;99.90;;;;;;4992291;28;20329;-63
2022/12/05 03:06:09;;;;;;;41.03;20.67;;;5.20;99.90;;;;;;4994852;28;20124;-63
2022/12/05 03:08:41;;;;;;;37.00;19.77;;;5.10;99.90;;;;;;4996901;28;20043;-63
2022/12/05 03:11:07;;;;;;;42.50;21.80;;;5.10;99.90;;;;;;4997396;28;20153;-63
2022/12/05 03:13:40;;;;;;;37.22;20.40;;;5.20;99.90;;;;;;4998485;28;20053;-64
2022/12/05 03:16:13;;;;;;;41.30;20.25;;;5.20;99.90;;;;;;4998774;28;20046;-63
2022/12/05 03:18:50;;;;;;;43.72;20.85;;;4.90;99.90;;;;;;5015729;28;20034;-64
2022/12/05 03:21:59;;;;;;;45.05;21.23;;;5.20;99.90;;;;;;4991283;28;20049;-65
2022/12/05 03:24:26;;;;;;;34.95;19.45;;;;;;;;;;4974717;28;20386;-64
2022/12/05 03:27:07;;;;;;;38.55;20.02;;;5.20;99.90;;;;;;4958390;28;20046;-65
2022/12/05 03:29:41;;;;;;;41.40;21.38;;;5.20;99.90;;;;;;4986041;28;20458;-65
2022/12/05 03:32:41;;;;;;;39.58;18.35;;;5.00;99.90;;;;;;5014339;28;20063;-64
2022/12/05 03:35:22;;;;;;;46.72;22.15;;;5.30;99.90;;;;;;5022757;28;20161;-65
2022/12/05 03:38:11;;;;;;;42.00;20.90;;;5.20;99.90;;;;;;5015983;28;20395;-65
2022/12/05 03:41:01;;;;;;;35.05;18.48;;;5.40;99.90;;;;;;5027799;28;20044;-65
2022/12/05 03:43:56;;;;;;;37.83;19.05;;;5.20;99.90;;;;;;5015688;28;20042;-64
2022/12/05 03:46:25;;;;;;;38.47;18.88;;;5.20;99.90;;;;;;5019004;28;20155;-65
2022/12/05 03:48:57;;;;;;;42.40;18.48;;;5.40;99.90;;;;;;5035355;28;20087;-65
2022/12/05 03:51:26;;;;;;;34.00;16.80;;;;;;;;;;5018773;28;20053;-64
2022/12/05 03:54:07;;;;;;;33.50;18.52;;;5.20;99.90;;;;;;5015188;28;20511;-64
2022/12/05 03:56:41;;;;;;;32.13;17.15;;;5.20;99.90;;;;;;5001018;28;20045;-65
2022/12/05 03:59:39;;;;;;;33.33;16.58;;;5.10;99.90;;;;;;5017535;28;20053;-64
2022/12/05 04:02:12;;;;;;;28.05;16.00;;;5.20;99.90;;;;;;4997103;28;20054;-64
2022/12/05 04:04:47;;;;;;;23.13;14.88;;;5.20;99.90;;;;;;5011462;28;20041;-65
2022/12/05 04:07:15;;;;;;;27.60;15.35;;;5.30;99.90;;;;;;4997684;28;20507;-65
2022/12/05 04:09:49;;;;;;;26.73;13.90;;;5.40;99.90;;;;;;5012986;28;20058;-65
2022/12/05 04:12:22;;;;;;;23.50;13.82;;;5.20;99.90;;;;;;5015071;28;20146;-64
2022/12/05 04:14:52;;;;;;;28.58;14.57;;;5.20;99.90;;;;;;5011123;28;20218;-65
2022/12/05 04:17:39;;;;;;;21.30;13.75;;;5.10;99.90;;;;;;4998049;28;20112;-65
2022/12/05 04:23:02;;;;;;;22.88;12.75;;;5.20;99.90;;;;;;5005060;28;20129;-64
2022/12/05 04:25:38;;;;;;;21.65;12.00;;;5.30;99.90;;;;;;5014849;28;20068;-64
2022/12/05 04:28:31;;;;;;;24.63;12.43;;;5.30;99.90;;;;;;5008584;28;20064;-64
2022/12/05 04:31:00;;;;;;;21.60;12.90;;;;;;;;;;5014829;28;20446;-64
2022/12/05 04:33:42;;;;;;;19.77;12.48;;;5.20;99.90;;;;;;4997357;28;20042;-64
2022/12/05 04:36:19;;;;;;;18.85;11.73;;;5.30;99.90;;;;;;4997004;28;20052;-65
2022/12/05 04:39:08;;;;;;;20.70;12.52;;;5.50;99.90;;;;;;5028457;28;20072;-64
2022/12/05 04:41:39;;;;;;;18.73;11.00;;;5.50;99.90;;;;;;5014408;28;20042;-64
2022/12/05 04:44:12;;;;;;;21.05;12.23;;;5.30;99.90;;;;;;4997006;28;20038;-64
2022/12/05 04:46:40;;;;;;;17.98;12.43;;;5.30;99.90;;;;;;5014259;28;20041;-64
2022/12/05 04:49:09;;;;;;;18.98;10.82;;;5.30;99.90;;;;;;4997072;28;20124;-65
2022/12/05 04:51:37;;;;;;;19.15;11.18;;;5.30;99.90;;;;;;5014302;28;20037;-65
2022/12/05 04:54:21;;;;;;;17.10;11.20;;;5.30;99.90;;;;;;5014077;28;20501;-64
2022/12/05 04:56:49;;;;;;;21.00;10.82;;;5.30;99.90;;;;;;5033529;28;20399;-65
2022/12/05 04:59:15;;;;;;;18.10;11.57;;;5.30;99.90;;;;;;5005098;28;20045;-64
2022/12/05 05:01:54;;;;;;;19.58;10.35;;;5.30;99.90;;;;;;5014036;28;20476;-64
2022/12/05 05:04:32;;;;;;;16.25;10.70;;;5.20;99.90;;;;;;4996861;28;20069;-64
2022/12/05 05:06:58;;;;;;;17.40;10.60;;;5.30;99.90;;;;;;5028385;28;20440;-64
2022/12/05 05:09:24;;;;;;;16.13;10.57;;;5.30;99.90;;;;;;5016644;28;20042;-64
2022/12/05 05:11:49;;;;;;;19.00;11.45;;;5.30;99.90;;;;;;5014204;28;20380;-64
2022/12/05 05:14:15;;;;;;;17.75;10.15;;;5.30;99.90;;;;;;5017601;28;20400;-64
2022/12/05 05:16:41;;;;;;;14.75;10.13;;;5.30;99.90;;;;;;5018863;28;20124;-65
2022/12/05 05:19:09;;;;;;;17.40;10.40;;;5.30;99.90;;;;;;5013965;28;20037;-64
2022/12/05 05:21:37;;;;;;;14.80;10.05;;;5.20;99.90;;;;;;5027154;28;20065;-65
2022/12/05 05:24:04;;;;;;;16.27;9.98;;;5.40;99.90;;;;;;5013980;28;20061;-64
2022/12/05 05:26:34;;;;;;;14.10;9.50;;;5.30;99.90;;;;;;4996351;28;20434;-65
2022/12/05 05:28:59;;;;;;;14.57;9.00;;;5.40;99.90;;;;;;5013543;28;20046;-64
2022/12/05 05:31:25;;;;;;;13.35;9.02;;;5.30;99.90;;;;;;4996133;28;20057;-65
2022/12/05 05:33:52;;;;;;;14.02;8.70;;;5.40;99.90;;;;;;4995841;28;20082;-65
2022/12/05 05:36:18;;;;;;;13.00;8.60;;;5.40;99.90;;;;;;4995847;28;20041;-65
2022/12/05 05:38:47;;;;;;;14.40;7.93;;;5.30;99.90;;;;;;5014370;28;20037;-64
2022/12/05 05:41:33;;;;;;;12.35;7.97;;;5.40;99.90;;;;;;5030475;28;20040;-65
2022/12/05 05:43:59;;;;;;;13.32;8.30;;;5.30;99.90;;;;;;5013998;28;20037;-64
2022/12/05 05:46:28;;;;;;;14.68;8.85;;;5.50;99.90;;;;;;4999540;28;20547;-65
2022/12/05 05:48:54;;;;;;;11.60;7.18;;;5.40;99.90;;;;;;5023157;28;20109;-64
2022/12/05 05:51:20;;;;;;;10.90;7.97;;;5.30;99.90;;;;;;5013472;28;20076;-65
2022/12/05 05:53:47;;;;;;;12.68;7.85;;;5.40;99.90;;;;;;4995788;28;20564;-65
2022/12/05 05:56:15;;;;;;;12.48;7.50;;;5.50;99.90;;;;;;4995532;28;20053;-64
2022/12/05 05:58:40;;;;;;;11.57;7.32;;;5.40;99.90;;;;;;4995793;28;20038;-65
2022/12/05 06:01:15;;;;;;;10.30;6.93;;;5.20;99.90;;;;;;4995515;28;20096;-65
2022/12/05 06:03:42;;;;;;;10.85;7.05;;;5.40;99.90;;;;;;5013591;28;20095;-65
2022/12/05 06:06:10;;;;;;;10.18;7.00;;;5.40;99.90;;;;;;4995553;28;20049;-65
2022/12/05 06:08:38;;;;;;;11.75;7.50;;;5.30;99.90;;;;;;5009496;28;20050;-65
2022/12/05 06:11:07;;;;;;;11.10;7.22;;;5.50;99.90;;;;;;5013085;28;20046;-64
2022/12/05 06:13:33;;;;;;;14.23;7.72;;;5.20;99.90;;;;;;5012946;28;20392;-64
2022/12/05 06:15:59;;;;;;;12.73;8.00;;;5.40;99.90;;;;;;5004663;28;20042;-65
2022/12/05 06:18:24;;;;;;;12.05;7.43;;;5.40;99.90;;;;;;5017754;28;20067;-65
2022/12/05 06:20:55;;;;;;;12.88;7.28;;;5.10;99.90;;;;;;5020444;28;20029;-65
2022/12/05 06:23:21;;;;;;;16.58;8.18;;;;;;;;;;5018955;28;20038;-64
2022/12/05 06:25:48;;;;;;;14.73;7.70;;;5.40;99.90;;;;;;5013079;28;20037;-64
2022/12/05 06:28:14;;;;;;;13.02;9.10;;;5.40;99.90;;;;;;5012726;28;20064;-64
2022/12/05 06:30:40;;;;;;;15.48;8.07;;;5.50;99.90;;;;;;5026725;28;20141;-65
2022/12/05 06:33:05;;;;;;;13.85;8.15;;;5.40;99.90;;;;;;5022625;28;20077;-65
2022/12/05 06:35:31;;;;;;;11.25;7.72;;;5.40;99.90;;;;;;4998816;28;20049;-65
2022/12/05 06:37:56;;;;;;;12.23;8.18;;;5.50;99.90;;;;;;5020874;28;20033;-65
2022/12/05 06:40:22;;;;;;;12.23;7.80;;;5.40;99.90;;;;;;5014744;28;20037;-64
2022/12/05 06:42:47;;;;;;;13.43;7.72;;;5.50;99.90;;;;;;5032416;28;20068;-65
2022/12/05 06:45:13;;;;;;;14.02;7.60;;;5.40;99.90;;;;;;5032322;28;20473;-65
2022/12/05 06:47:39;;;;;;;15.32;8.05;;;;;;;;;;5022813;28;20053;-65
2022/12/05 06:50:05;;;;;;;11.73;7.53;;;5.40;99.90;;;;;;4989092;28;20041;-65
2022/12/05 06:52:30;;;;;;;14.60;9.15;;;5.70;99.90;;;;;;5006706;28;20050;-65
2022/12/05 06:54:58;;;;;;;18.00;9.57;;;5.40;99.90;;;;;;5016610;28;20045;-65
2022/12/05 06:57:24;;;;;;;12.07;8.07;;;5.50;99.90;;;;;;4998769;28;20042;-65
2022/12/05 06:59:49;;;;;;;12.07;7.90;;;5.30;99.90;;;;;;5016613;28;20446;-65
2022/12/05 07:02:15;;;;;;;14.50;8.35;;;5.40;99.90;;;;;;4998782;28;20042;-65
2022/12/05 07:04:40;;;;;;;11.60;7.03;;;5.40;99.90;;;;;;5016488;28;20057;-64
2022/12/05 07:07:06;;;;;;;10.32;7.53;;;5.40;99.90;;;;;;5022462;28;20095;-65
2022/12/05 07:09:50;;;;;;;10.20;7.90;;;5.40;99.90;;;;;;5018426;28;20045;-65
2022/12/05 07:12:17;;;;;;;14.40;7.47;;;5.40;99.90;;;;;;5005336;28;20048;-65
2022/12/05 07:14:44;;;;;;;10.98;7.70;;;5.50;99.90;;;;;;5005500;28;20129;-65
2022/12/05 07:17:10;;;;;;;10.73;7.10;;;5.50;99.90;;;;;;5016025;28;20429;-65
2022/12/05 07:19:36;;;;;;;11.27;7.38;;;5.70;99.90;;;;;;5027240;28;20044;-65
2022/12/05 07:22:01;;;;;;;14.50;8.27;;;5.50;99.90;;;;;;5018997;28;20038;-64
2022/12/05 07:24:27;;;;;;;11.10;7.25;;;;;;;;;;5007676;28;20404;-64
2022/12/05 07:26:53;;;;;;;12.50;8.20;;;5.40;99.90;;;;;;5035374;28;20566;-65
2022/12/05 07:29:18;;;;;;;15.05;8.32;;;5.50;99.90;;;;;;5011340;28;20053;-65
2022/12/05 07:31:44;;;;;;;13.65;8.20;;;5.50;99.90;;;;;;5016108;28;20050;-63
2022/12/05 07:34:10;;;;;;;11.63;7.57;;;5.50;99.90;;;;;;5015781;28;20042;-63
2022/12/05 07:36:36;;;;;;;10.88;7.10;;;5.50;99.90;;;;;;5015978;28;20071;-62
2022/12/05 07:39:02;;;;;;;11.65;7.88;;;5.60;99.90;;;;;;5032532;28;20479;-63
2022/12/05 07:41:30;;;;;;;14.48;9.38;;;5.60;99.90;;;;;;5030376;28;20088;-63
2022/12/05 07:43:57;;;;;;;11.13;7.32;;;5.60;99.90;;;;;;5027234;28;20396;-63
2022/12/05 07:46:25;;;;;;;13.07;8.65;;;5.50;99.90;;;;;;5000213;28;20045;-63
2022/12/05 07:48:51;;;;;;;13.25;7.88;;;5.50;99.90;;;;;;4998335;28;20057;-62
2022/12/05 07:51:17;;;;;;;16.00;9.57;;;5.50;99.90;;;;;;5015397;28;20046;-63
2022/12/05 07:53:44;;;;;;;15.07;8.80;;;5.40;99.90;;;;;;5003016;28;20391;-63
2022/12/05 07:56:13;;;;;;;14.77;7.47;;;5.50;99.90;;;;;;5020198;28;20042;-63
2022/12/05 07:58:39;;;;;;;16.33;8.65;;;5.60;99.90;;;;;;5028894;28;20041;-63
2022/12/05 08:01:08;;;;;;;17.55;8.82;;;5.50;99.90;;;;;;5033892;28;20030;-63
2022/12/05 08:03:36;;;;;;;15.77;9.43;;;5.60;99.90;;;;;;5032289;28;20479;-64
2022/12/05 08:06:07;;;;;;;17.00;9.13;;;5.70;99.90;;;;;;5013391;28;20049;-64
2022/12/05 08:08:32;;;;;;;17.48;8.68;;;5.60;99.90;;;;;;5030848;28;20084;-62
2022/12/05 08:11:04;;;;;;;15.18;8.57;;;5.50;99.90;;;;;;5011997;28;20034;-63
2022/12/05 08:13:30;;;;;;;16.77;8.90;;;5.60;99.90;;;;;;5018642;28;20084;-62
2022/12/05 08:16:00;;;;;;;17.27;9.35;;;5.70;99.90;;;;;;5023627;28;20037;-62
2022/12/05 08:18:25;;;;;;;17.50;9.43;;;5.60;99.90;;;;;;5004135;28;20041;-62
2022/12/05 08:20:51;;;;;;;17.00;8.95;;;5.60;99.90;;;;;;5023406;28;20369;-62
2022/12/05 08:23:16;;;;;;;18.15;9.48;;;5.60;99.90;;;;;;5021620;28;20499;-62
2022/12/05 08:25:42;;;;;;;15.15;9.05;;;5.60;99.90;;;;;;5014806;28;20516;-62
2022/12/05 08:28:07;;;;;;;20.00;10.07;;;5.60;99.90;;;;;;4997240;28;20567;-63
2022/12/05 08:30:33;;;;;;;14.75;8.95;;;5.60;99.90;;;;;;4997100;28;20518;-62
2022/12/05 08:32:59;;;;;;;15.48;8.68;;;5.50;99.90;;;;;;5014799;28;20522;-62
2022/12/05 08:35:25;;;;;;;17.80;8.40;;;5.60;99.90;;;;;;5014946;28;20412;-63
2022/12/05 08:37:51;;;;;;;20.25;9.25;;;5.50;99.90;;;;;;5027011;28;20080;-63
2022/12/05 08:40:16;;;;;;;16.63;8.63;;;5.60;99.90;;;;;;5006079;28;20048;-63
2022/12/05 08:42:42;;;;;;;20.33;9.40;;;5.60;99.90;;;;;;5033116;28;20037;-63
2022/12/05 08:45:08;;;;;;;19.60;9.20;;;5.70;99.90;;;;;;5021774;28;20038;-62
2022/12/05 08:47:33;;;;;;;19.30;8.70;;;5.60;99.90;;;;;;5020907;28;20118;-62
2022/12/05 08:49:59;;;;;;;16.50;8.20;;;5.60;99.90;;;;;;5019833;28;20037;-62
2022/12/05 08:52:24;;;;;;;15.98;9.07;;;5.60;99.90;;;;;;5005552;28;20042;-62
2022/12/05 08:54:50;;;;;;;18.95;9.82;;;5.40;99.90;;;;;;5014204;28;20074;-62
2022/12/05 08:57:16;;;;;;;19.58;9.07;;;5.60;99.90;;;;;;5014044;28;20132;-62
2022/12/05 08:59:41;;;;;;;21.33;9.73;;;5.60;99.90;;;;;;4998534;28;20034;-62
2022/12/05 09:02:08;;;;;;;24.45;9.02;;;;;;;;;;4995621;28;20100;-62
2022/12/05 09:04:33;;;;;;;17.55;9.77;;;5.60;99.90;;;;;;4997516;28;20111;-63
2022/12/05 09:07:01;;;;;;;16.83;9.00;;;5.60;99.90;;;;;;4998722;28;20045;-62
2022/12/05 09:09:26;;;;;;;17.10;8.55;;;5.50;99.90;;;;;;5015069;28;20026;-63
2022/12/05 09:11:52;;;;;;;16.00;8.32;;;5.60;99.90;;;;;;5026850;28;20040;-62
2022/12/05 09:14:17;;;;;;;18.73;8.48;;;5.60;99.90;;;;;;5031500;28;20128;-63
2022/12/05 09:16:45;;;;;;;18.98;8.15;;;;;;;;;;5024249;28;20069;-62
2022/12/05 09:19:14;;;;;;;13.05;8.10;;;5.60;99.90;;;;;;5014341;28;20045;-62
2022/12/05 09:21:40;;;;;;;18.33;9.27;;;5.70;99.90;;;;;;4993584;28;20083;-64
2022/12/05 09:24:06;;;;;;;14.82;7.82;;;5.70;99.90;;;;;;4996230;28;20046;-62
2022/12/05 09:26:31;;;;;;;16.15;7.28;;;5.70;99.90;;;;;;5013797;28;20041;-63
2022/12/05 09:28:57;;;;;;;14.07;7.85;;;5.70;99.90;;;;;;4995798;28;20496;-63
2022/12/05 09:31:25;;;;;;;12.15;7.72;;;5.70;99.90;;;;;;5013717;28;20041;-62
2022/12/05 09:33:51;;;;;;;18.17;8.30;;;5.60;99.90;;;;;;5014136;28;20041;-63
2022/12/05 09:36:20;;;;;;;17.92;7.05;;;5.70;99.90;;;;;;4997772;28;20534;-63
2022/12/05 09:38:46;;;;;;;15.35;7.80;;;;;;;;;;4996136;28;20380;-63
2022/12/05 09:45:00;;;;;;;12.07;7.03;;;5.70;99.90;;;;;;5015328;28;20049;-63
2022/12/05 09:47:37;;;;;;;16.02;7.57;;;5.80;99.90;;;;;;5003425;28;20057;-62
2022/12/05 09:50:22;;;;;;;13.05;7.63;;;;;;;;;;5005160;28;20501;-63
2022/12/05 09:53:13;;;;;;;14.50;7.27;;;5.80;99.90;;;;;;5026572;28;20453;-64
2022/12/05 09:55:51;;;;;;;16.55;7.90;;;5.70;99.90;;;;;;5023742;28;20095;-64
2022/12/05 09:58:29;;;;;;;15.75;8.82;;;5.50;99.90;;;;;;5011576;28;20480;-64
2022/12/05 10:01:26;;;;;;;17.90;8.50;;;5.70;99.90;;;;;;5013223;28;20456;-64
2022/12/05 10:04:11;;;;;;;14.27;7.88;;;5.70;99.90;;;;;;5005463;28;20404;-64
2022/12/05 10:06:46;;;;;;;19.15;8.75;;;5.60;99.90;;;;;;5013411;28;20037;-64
2022/12/05 10:09:12;;;;;;;18.63;8.80;;;;;;;;;;4996316;28;20085;-64
2022/12/05 10:11:58;;;;;;;16.42;8.20;;;5.80;99.90;;;;;;5014600;28;20053;-64
2022/12/05 10:14:32;;;;;;;18.00;9.05;;;5.70;99.90;;;;;;5022348;28;20034;-64
2022/12/05 10:17:08;;;;;;;15.27;8.27;;;5.60;99.90;;;;;;4998987;28;20076;-64
2022/12/05 10:19:38;;;;;;;20.48;7.30;;;;;;;;;;5021147;28;20088;-64
2022/12/05 10:22:15;;;;;;;20.27;8.32;;;5.80;99.90;;;;;;5026804;28;20176;-64
2022/12/05 10:24:51;;;;;;;17.33;8.68;;;5.60;99.90;;;;;;5013033;28;20184;-64
2022/12/05 10:27:41;;;;;;;13.93;8.90;;;5.70;99.90;;;;;;4999682;28;20060;-64
2022/12/05 10:30:22;;;;;;;21.48;9.90;;;5.50;99.90;;;;;;5029507;28;20073;-64
2022/12/05 10:33:01;;;;;;;16.27;8.43;;;5.70;99.90;;;;;;5020714;28;20091;-64
2022/12/05 10:35:38;;;;;;;18.38;9.10;;;5.70;99.90;;;;;;5017969;28;20488;-64
2022/12/05 10:38:26;;;;;;;17.08;8.98;;;5.70;99.90;;;;;;5014436;28;20033;-64
2022/12/05 10:40:53;;;;;;;18.38;8.77;;;;;;;;;;5014347;28;20077;-64
2022/12/05 10:43:31;;;;;;;19.55;9.00;;;5.70;99.90;;;;;;5008946;28;20053;-64
2022/12/05 10:45:57;;;;;;;17.08;8.80;;;;;;;;;;5008998;28;20045;-64
2022/12/05 10:48:23;;;;;;;17.42;9.25;;;5.70;99.90;;;;;;5019019;28;20033;-64
2022/12/05 10:50:51;;;;;;;16.17;9.07;;;;;;;;;;5020591;28;20551;-64
2022/12/05 10:53:27;;;;;;;19.35;8.65;;;;;;;;;;5031114;28;20044;-64
2022/12/05 10:55:54;;;;;;;15.93;8.45;;;5.70;99.90;;;;;;5009270;28;20041;-64
2022/12/05 10:58:24;;;;;;;18.33;8.43;;;5.50;99.90;;;;;;5016644;28;20045;-64
2022/12/05 11:00:56;;;;;;;17.08;8.73;;;5.80;99.90;;;;;;5009882;28;20038;-64
2022/12/05 11:03:29;;;;;;;19.45;9.38;;;5.80;99.90;;;;;;5016073;28;20034;-64
2022/12/05 11:05:57;;;;;;;21.98;9.20;;;5.70;99.90;;;;;;5010421;28;20077;-64
2022/12/05 11:08:26;;;;;;;16.75;8.80;;;5.80;99.90;;;;;;5008720;28;20057;-64
2022/12/05 11:11:22;;;;;;;18.17;9.32;;;5.70;99.90;;;;;;5012379;28;20044;-64
2022/12/05 11:13:55;;;;;;;16.45;8.63;;;;;;;;;;4995269;28;20077;-64
2022/12/05 11:16:27;;;;;;;12.77;7.90;;;5.90;99.90;;;;;;5000696;28;20590;-64
2022/12/05 11:18:53;;;;;;;13.98;8.10;;;5.80;99.90;;;;;;5013824;28;20045;-64
2022/12/05 11:21:19;;;;;;;16.83;8.50;;;5.90;99.90;;;;;;5019297;28;20407;-64
2022/12/05 11:23:46;;;;;;;12.98;7.65;;;5.90;99.90;;;;;;5002418;28;20519;-64
2022/12/05 11:26:32;;;;;;;18.02;8.32;;;5.80;99.90;;;;;;5015818;28;20048;-64
2022/12/05 11:28:58;;;;;;;16.10;7.57;;;;;;;;;;5013870;28;20064;-64
2022/12/05 11:31:30;;;;;;;13.48;7.63;;;5.90;99.90;;;;;;5013416;28;20048;-64
2022/12/05 11:34:16;;;;;;;12.40;7.00;;;5.80;99.90;;;;;;5007435;28;20041;-64
2022/12/05 11:36:49;;;;;;;14.80;7.63;;;5.90;99.90;;;;;;5023723;28;20042;-64
2022/12/05 11:39:15;;;;;;;9.98;6.30;;;5.90;99.90;;;;;;5024320;28;20480;-64
2022/12/05 11:42:02;;;;;;;13.20;7.03;;;5.80;99.90;;;;;;5028688;28;20048;-64
2022/12/05 11:44:46;;;;;;;13.50;6.85;;;5.90;99.90;;;;;;5029434;28;20516;-64
2022/12/05 11:47:30;;;;;;;13.80;6.85;;;5.80;99.90;;;;;;5008322;28;20088;-64
2022/12/05 11:50:24;;;;;;;13.25;7.43;;;5.80;99.90;;;;;;5030502;28;20040;-64
2022/12/05 11:53:04;;;;;;;10.13;6.82;;;6.00;99.90;;;;;;4995330;28;20061;-64
2022/12/05 11:55:42;;;;;;;10.50;6.72;;;5.80;99.90;;;;;;5015437;28;20050;-64
2022/12/05 11:58:17;;;;;;;11.50;7.05;;;5.80;99.90;;;;;;5008423;28;20038;-64
2022/12/05 12:00:56;;;;;;;12.63;6.47;;;5.90;99.90;;;;;;5028203;28;20041;-64
2022/12/05 12:03:37;;;;;;;12.38;6.38;;;5.90;99.90;;;;;;5006560;28;20033;-64
2022/12/05 12:06:27;;;;;;;10.30;6.32;;;5.90;99.90;;;;;;5007149;28;20515;-64
2022/12/05 12:09:07;;;;;;;13.05;6.72;;;5.90;99.90;;;;;;5006058;28;20427;-64
2022/12/05 12:11:41;;;;;;;14.63;7.57;;;6.00;99.90;;;;;;5019998;28;20358;-63
2022/12/05 12:14:24;;;;;;;13.32;6.40;;;5.80;99.90;;;;;;5015290;28;20042;-63
2022/12/05 12:17:17;;;;;;;10.75;6.57;;;6.10;99.90;;;;;;5003680;28;20053;-64
2022/12/05 12:19:49;;;;;;;10.60;6.35;;;;;;;;;;4997419;28;20488;-64
2022/12/05 12:22:31;;;;;;;12.15;6.68;;;5.80;99.90;;;;;;5024746;28;20436;-64
2022/12/05 12:25:19;;;;;;;12.57;7.20;;;5.90;99.90;;;;;;5029372;28;20041;-64
2022/12/05 12:28:26;;;;;;;13.30;6.43;;;5.90;99.90;;;;;;4997713;28;20061;-64
2022/12/05 12:31:21;;;;;;;10.65;6.35;;;;;;;;;;4996919;28;20125;-64
2022/12/05 12:34:25;;;;;;;12.75;6.13;;;5.90;99.90;;;;;;4995715;28;20049;-64
2022/12/05 12:37:01;;;;;;;10.57;5.78;;;5.80;99.90;;;;;;5009942;28;20053;-64
2022/12/05 12:39:49;;;;;;;12.15;6.03;;;5.80;99.90;;;;;;5016989;28;20427;-64
2022/12/05 12:42:55;;;;;;;7.32;4.60;;;6.00;99.90;;;;;;5005141;28;20046;-64
2022/12/05 12:45:47;;;;;;;10.70;6.47;;;6.00;99.90;;;;;;5005964;28;20100;-64
2022/12/05 12:48:57;;;;;;;7.65;4.53;;;5.70;99.90;;;;;;5020494;28;20072;-64
2022/12/05 12:51:23;;;;;;;10.02;4.85;;;5.80;99.90;;;;;;5013636;28;20058;-64
2022/12/05 12:54:22;;;;;;;7.68;5.00;;;5.90;99.90;;;;;;5023399;28;20033;-64
2022/12/05 12:57:10;;;;;;;9.43;4.40;;;5.70;99.90;;;;;;4949635;28;20057;-64
2022/12/05 13:00:03;;;;;;;10.18;4.93;;;5.80;99.90;;;;;;5016036;28;20049;-64
2022/12/05 13:02:40;;;;;;;8.30;4.70;;;5.80;99.90;;;;;;5024409;28;20048;-64
2022/12/05 13:05:09;;;;;;;8.13;5.40;;;;;;;;;;5014138;28;20131;-64
2022/12/05 13:07:40;;;;;;;9.63;4.97;;;5.90;99.90;;;;;;5016330;28;20064;-64
2022/12/05 13:10:16;;;;;;;7.20;4.80;;;5.90;99.90;;;;;;5019896;28;20139;-64
2022/12/05 13:12:43;;;;;;;10.95;5.78;;;5.90;99.90;;;;;;5016119;28;20041;-64
2022/12/05 13:15:25;;;;;;;8.85;5.15;;;5.90;99.90;;;;;;5033693;28;20045;-64
2022/12/05 13:17:53;;;;;;;14.95;5.80;;;5.90;99.90;;;;;;5023287;28;20041;-64
2022/12/05 13:20:21;;;;;;;7.80;5.28;;;6.00;99.90;;;;;;5016939;28;20040;-64
2022/12/05 13:22:50;;;;;;;6.32;4.70;;;5.90;99.90;;;;;;5024436;28;20034;-64
2022/12/05 13:25:18;;;;;;;10.75;5.15;;;5.80;99.90;;;;;;5029414;28;20045;-64